sensor_id;sensor_type;location;lat;lon;timestamp;P1;durP1;ratioP1;P2;durP2;ratioP2
74904;SDS011;63465;50.862;6.220;2023-05-14T00:01:47;16.10;;;11.07;;
74904;SDS011;63465;50.862;6.220;2023-05-14T00:04:12;15.63;;;11.20;;
74904;SDS011;63465;50.862;6.220;2023-05-14T00:06:37;14.67;;;11.23;;
74904;SDS011;63465;50.862;6.220;2023-05-14T00:09:02;13.60;;;10.53;;
74904;SDS011;63465;50.862;6.220;2023-05-14T00:11:28;15.07;;;10.80;;
74904;SDS011;63465;50.862;6.220;2023-05-14T00:13:53;15.63;;;11.93;;
74904;SDS011;63465;50.862;6.220;2023-05-14T00:16:19;14.03;;;10.87;;
74904;SDS011;63465;50.862;6.220;2023-05-14T00:18:44;14.70;;;12.00;;
74904;SDS011;63465;50.862;6.220;2023-05-14T00:21:09;14.17;;;11.90;;
74904;SDS011;63465;50.862;6.220;2023-05-14T00:23:35;16.90;;;11.90;;
74904;SDS011;63465;50.862;6.220;2023-05-14T00:26:00;14.97;;;11.20;;
74904;SDS011;63465;50.862;6.220;2023-05-14T00:28:25;19.03;;;10.77;;
74904;SDS011;63465;50.862;6.220;2023-05-14T00:30:51;14.90;;;11.70;;
74904;SDS011;63465;50.862;6.220;2023-05-14T00:33:16;17.40;;;12.03;;
74904;SDS011;63465;50.862;6.220;2023-05-14T00:35:41;19.83;;;13.20;;
74904;SDS011;63465;50.862;6.220;2023-05-14T00:38:06;13.67;;;11.83;;
74904;SDS011;63465;50.862;6.220;2023-05-14T00:40:32;15.97;;;12.67;;
74904;SDS011;63465;50.862;6.220;2023-05-14T00:42:58;17.30;;;12.60;;
74904;SDS011;63465;50.862;6.220;2023-05-14T00:45:23;15.63;;;11.80;;
74904;SDS011;63465;50.862;6.220;2023-05-14T00:47:50;17.90;;;12.07;;
74904;SDS011;63465;50.862;6.220;2023-05-14T00:50:15;16.70;;;12.20;;
74904;SDS011;63465;50.862;6.220;2023-05-14T00:52:41;20.80;;;13.20;;
74904;SDS011;63465;50.862;6.220;2023-05-14T00:55:07;17.50;;;12.87;;
74904;SDS011;63465;50.862;6.220;2023-05-14T00:57:33;19.63;;;13.93;;
74904;SDS011;63465;50.862;6.220;2023-05-14T01:00:00;18.57;;;12.97;;
74904;SDS011;63465;50.862;6.220;2023-05-14T01:02:26;20.53;;;12.33;;
74904;SDS011;63465;50.862;6.220;2023-05-14T01:04:51;16.80;;;13.00;;
74904;SDS011;63465;50.862;6.220;2023-05-14T01:10:30;19.50;;;12.93;;
74904;SDS011;63465;50.862;6.220;2023-05-14T01:13:13;17.87;;;13.37;;
74904;SDS011;63465;50.862;6.220;2023-05-14T01:16:00;19.87;;;12.53;;
74904;SDS011;63465;50.862;6.220;2023-05-14T01:18:27;23.20;;;13.07;;
74904;SDS011;63465;50.862;6.220;2023-05-14T01:20:55;18.90;;;13.47;;
74904;SDS011;63465;50.862;6.220;2023-05-14T01:23:21;16.47;;;12.67;;
74904;SDS011;63465;50.862;6.220;2023-05-14T01:25:46;16.87;;;13.10;;
74904;SDS011;63465;50.862;6.220;2023-05-14T01:30:45;18.10;;;12.50;;
74904;SDS011;63465;50.862;6.220;2023-05-14T01:33:13;14.87;;;12.00;;
74904;SDS011;63465;50.862;6.220;2023-05-14T01:35:40;16.43;;;12.40;;
74904;SDS011;63465;50.862;6.220;2023-05-14T01:38:08;15.00;;;11.60;;
74904;SDS011;63465;50.862;6.220;2023-05-14T01:40:35;15.67;;;11.40;;
74904;SDS011;63465;50.862;6.220;2023-05-14T01:43:01;14.97;;;10.90;;
74904;SDS011;63465;50.862;6.220;2023-05-14T01:45:28;13.63;;;10.37;;
74904;SDS011;63465;50.862;6.220;2023-05-14T01:47:54;16.23;;;11.67;;
74904;SDS011;63465;50.862;6.220;2023-05-14T01:50:20;14.60;;;10.90;;
74904;SDS011;63465;50.862;6.220;2023-05-14T01:52:45;13.00;;;10.73;;
74904;SDS011;63465;50.862;6.220;2023-05-14T01:55:12;16.23;;;11.23;;
74904;SDS011;63465;50.862;6.220;2023-05-14T01:57:37;12.20;;;10.60;;
74904;SDS011;63465;50.862;6.220;2023-05-14T02:00:03;14.77;;;10.80;;
74904;SDS011;63465;50.862;6.220;2023-05-14T02:02:29;13.13;;;10.40;;
74904;SDS011;63465;50.862;6.220;2023-05-14T02:04:55;12.73;;;10.07;;
74904;SDS011;63465;50.862;6.220;2023-05-14T02:07:20;14.93;;;10.30;;
74904;SDS011;63465;50.862;6.220;2023-05-14T02:09:45;12.73;;;10.00;;
74904;SDS011;63465;50.862;6.220;2023-05-14T02:12:10;11.00;;;9.80;;
74904;SDS011;63465;50.862;6.220;2023-05-14T02:14:36;14.83;;;9.87;;
74904;SDS011;63465;50.862;6.220;2023-05-14T02:17:02;13.23;;;10.30;;
74904;SDS011;63465;50.862;6.220;2023-05-14T02:19:27;12.97;;;9.93;;
74904;SDS011;63465;50.862;6.220;2023-05-14T02:21:53;12.43;;;9.57;;
74904;SDS011;63465;50.862;6.220;2023-05-14T02:24:18;14.20;;;9.97;;
74904;SDS011;63465;50.862;6.220;2023-05-14T02:26:44;12.30;;;10.10;;
74904;SDS011;63465;50.862;6.220;2023-05-14T02:29:09;13.77;;;10.23;;
74904;SDS011;63465;50.862;6.220;2023-05-14T02:31:35;14.30;;;10.47;;
74904;SDS011;63465;50.862;6.220;2023-05-14T02:34:01;12.70;;;10.30;;
74904;SDS011;63465;50.862;6.220;2023-05-14T02:36:27;11.90;;;9.63;;
74904;SDS011;63465;50.862;6.220;2023-05-14T02:38:53;12.50;;;10.00;;
74904;SDS011;63465;50.862;6.220;2023-05-14T02:41:18;15.30;;;10.70;;
74904;SDS011;63465;50.862;6.220;2023-05-14T02:43:43;14.53;;;10.10;;
74904;SDS011;63465;50.862;6.220;2023-05-14T02:46:09;14.90;;;10.77;;
74904;SDS011;63465;50.862;6.220;2023-05-14T02:48:34;12.50;;;9.30;;
74904;SDS011;63465;50.862;6.220;2023-05-14T02:50:59;13.40;;;10.30;;
74904;SDS011;63465;50.862;6.220;2023-05-14T02:53:26;15.87;;;10.37;;
74904;SDS011;63465;50.862;6.220;2023-05-14T02:55:51;13.97;;;10.77;;
74904;SDS011;63465;50.862;6.220;2023-05-14T02:58:17;17.10;;;9.73;;
74904;SDS011;63465;50.862;6.220;2023-05-14T03:00:43;12.17;;;9.60;;
74904;SDS011;63465;50.862;6.220;2023-05-14T03:03:08;13.27;;;10.30;;
74904;SDS011;63465;50.862;6.220;2023-05-14T03:05:33;14.80;;;10.13;;
74904;SDS011;63465;50.862;6.220;2023-05-14T03:07:59;21.73;;;9.67;;
74904;SDS011;63465;50.862;6.220;2023-05-14T03:10:24;13.93;;;11.37;;
74904;SDS011;63465;50.862;6.220;2023-05-14T03:12:50;15.13;;;11.10;;
74904;SDS011;63465;50.862;6.220;2023-05-14T03:15:15;16.33;;;10.47;;
74904;SDS011;63465;50.862;6.220;2023-05-14T03:17:41;14.33;;;10.60;;
74904;SDS011;63465;50.862;6.220;2023-05-14T03:20:06;13.27;;;10.67;;
74904;SDS011;63465;50.862;6.220;2023-05-14T03:22:32;18.00;;;12.40;;
74904;SDS011;63465;50.862;6.220;2023-05-14T03:24:57;15.70;;;11.53;;
74904;SDS011;63465;50.862;6.220;2023-05-14T03:27:22;16.27;;;11.80;;
74904;SDS011;63465;50.862;6.220;2023-05-14T03:29:48;15.17;;;12.20;;
74904;SDS011;63465;50.862;6.220;2023-05-14T03:32:13;17.97;;;12.77;;
74904;SDS011;63465;50.862;6.220;2023-05-14T03:34:39;17.40;;;12.40;;
74904;SDS011;63465;50.862;6.220;2023-05-14T03:37:04;15.30;;;12.97;;
74904;SDS011;63465;50.862;6.220;2023-05-14T03:39:30;21.03;;;13.53;;
74904;SDS011;63465;50.862;6.220;2023-05-14T03:41:55;17.40;;;12.93;;
74904;SDS011;63465;50.862;6.220;2023-05-14T03:44:22;17.70;;;13.07;;
74904;SDS011;63465;50.862;6.220;2023-05-14T03:46:48;17.97;;;12.83;;
74904;SDS011;63465;50.862;6.220;2023-05-14T03:49:13;19.90;;;12.77;;
74904;SDS011;63465;50.862;6.220;2023-05-14T03:51:39;17.77;;;13.17;;
74904;SDS011;63465;50.862;6.220;2023-05-14T03:54:05;16.80;;;12.53;;
74904;SDS011;63465;50.862;6.220;2023-05-14T03:56:30;16.23;;;12.70;;
74904;SDS011;63465;50.862;6.220;2023-05-14T03:58:55;18.23;;;11.40;;
74904;SDS011;63465;50.862;6.220;2023-05-14T04:01:21;16.60;;;12.53;;
74904;SDS011;63465;50.862;6.220;2023-05-14T04:03:46;18.70;;;12.40;;
74904;SDS011;63465;50.862;6.220;2023-05-14T04:06:11;24.83;;;12.00;;
74904;SDS011;63465;50.862;6.220;2023-05-14T04:08:37;15.83;;;11.47;;
74904;SDS011;63465;50.862;6.220;2023-05-14T04:11:02;19.30;;;12.07;;
74904;SDS011;63465;50.862;6.220;2023-05-14T04:13:27;14.97;;;11.50;;
74904;SDS011;63465;50.862;6.220;2023-05-14T04:15:52;18.90;;;12.53;;
74904;SDS011;63465;50.862;6.220;2023-05-14T04:18:18;16.50;;;12.37;;
74904;SDS011;63465;50.862;6.220;2023-05-14T04:20:43;17.53;;;11.63;;
74904;SDS011;63465;50.862;6.220;2023-05-14T04:23:09;16.33;;;12.40;;
74904;SDS011;63465;50.862;6.220;2023-05-14T04:25:34;16.57;;;12.47;;
74904;SDS011;63465;50.862;6.220;2023-05-14T04:27:59;17.63;;;12.17;;
74904;SDS011;63465;50.862;6.220;2023-05-14T04:30:25;15.77;;;12.20;;
74904;SDS011;63465;50.862;6.220;2023-05-14T04:32:50;22.80;;;12.80;;
74904;SDS011;63465;50.862;6.220;2023-05-14T04:35:15;15.80;;;12.20;;
74904;SDS011;63465;50.862;6.220;2023-05-14T04:37:41;17.00;;;13.20;;
74904;SDS011;63465;50.862;6.220;2023-05-14T04:40:07;15.90;;;12.40;;
74904;SDS011;63465;50.862;6.220;2023-05-14T04:42:33;15.67;;;12.30;;
74904;SDS011;63465;50.862;6.220;2023-05-14T04:44:58;14.07;;;11.67;;
74904;SDS011;63465;50.862;6.220;2023-05-14T04:47:23;16.63;;;11.20;;
74904;SDS011;63465;50.862;6.220;2023-05-14T04:49:49;15.47;;;11.20;;
74904;SDS011;63465;50.862;6.220;2023-05-14T04:52:36;16.73;;;11.90;;
74904;SDS011;63465;50.862;6.220;2023-05-14T04:55:02;14.00;;;10.57;;
74904;SDS011;63465;50.862;6.220;2023-05-14T04:57:28;18.13;;;11.80;;
74904;SDS011;63465;50.862;6.220;2023-05-14T04:59:53;15.47;;;11.00;;
74904;SDS011;63465;50.862;6.220;2023-05-14T05:02:18;15.07;;;11.30;;
74904;SDS011;63465;50.862;6.220;2023-05-14T05:04:44;18.63;;;12.80;;
74904;SDS011;63465;50.862;6.220;2023-05-14T05:07:11;15.00;;;12.40;;
74904;SDS011;63465;50.862;6.220;2023-05-14T05:09:37;17.30;;;11.97;;
74904;SDS011;63465;50.862;6.220;2023-05-14T05:12:02;16.00;;;12.50;;
74904;SDS011;63465;50.862;6.220;2023-05-14T05:14:28;16.60;;;12.77;;
74904;SDS011;63465;50.862;6.220;2023-05-14T05:16:53;21.43;;;14.13;;
74904;SDS011;63465;50.862;6.220;2023-05-14T05:19:18;17.37;;;11.90;;
74904;SDS011;63465;50.862;6.220;2023-05-14T05:21:44;20.77;;;12.70;;
74904;SDS011;63465;50.862;6.220;2023-05-14T05:24:09;16.73;;;12.70;;
74904;SDS011;63465;50.862;6.220;2023-05-14T05:26:35;21.00;;;14.00;;
74904;SDS011;63465;50.862;6.220;2023-05-14T05:29:01;17.07;;;11.93;;
74904;SDS011;63465;50.862;6.220;2023-05-14T05:31:29;16.23;;;12.40;;
74904;SDS011;63465;50.862;6.220;2023-05-14T05:33:56;22.17;;;13.97;;
74904;SDS011;63465;50.862;6.220;2023-05-14T05:36:23;14.83;;;12.40;;
74904;SDS011;63465;50.862;6.220;2023-05-14T05:38:48;19.03;;;12.60;;
74904;SDS011;63465;50.862;6.220;2023-05-14T05:41:13;17.53;;;12.60;;
74904;SDS011;63465;50.862;6.220;2023-05-14T05:43:39;18.13;;;12.40;;
74904;SDS011;63465;50.862;6.220;2023-05-14T05:46:04;18.73;;;13.17;;
74904;SDS011;63465;50.862;6.220;2023-05-14T05:48:30;20.57;;;13.40;;
74904;SDS011;63465;50.862;6.220;2023-05-14T05:50:56;16.07;;;12.20;;
74904;SDS011;63465;50.862;6.220;2023-05-14T05:53:21;19.07;;;13.97;;
74904;SDS011;63465;50.862;6.220;2023-05-14T05:55:46;23.70;;;12.33;;
74904;SDS011;63465;50.862;6.220;2023-05-14T05:58:12;16.47;;;13.30;;
74904;SDS011;63465;50.862;6.220;2023-05-14T06:00:39;20.60;;;13.40;;
74904;SDS011;63465;50.862;6.220;2023-05-14T06:03:05;23.10;;;13.00;;
74904;SDS011;63465;50.862;6.220;2023-05-14T06:05:31;23.60;;;14.63;;
74904;SDS011;63465;50.862;6.220;2023-05-14T06:07:56;21.23;;;13.57;;
74904;SDS011;63465;50.862;6.220;2023-05-14T06:10:21;19.20;;;14.00;;
74904;SDS011;63465;50.862;6.220;2023-05-14T06:12:47;28.93;;;15.90;;
74904;SDS011;63465;50.862;6.220;2023-05-14T06:15:12;22.10;;;15.97;;
74904;SDS011;63465;50.862;6.220;2023-05-14T06:17:38;23.00;;;16.07;;
74904;SDS011;63465;50.862;6.220;2023-05-14T06:20:04;29.23;;;17.17;;
74904;SDS011;63465;50.862;6.220;2023-05-14T06:22:31;25.83;;;17.80;;
74904;SDS011;63465;50.862;6.220;2023-05-14T06:24:57;23.97;;;16.57;;
74904;SDS011;63465;50.862;6.220;2023-05-14T06:27:22;24.10;;;17.60;;
74904;SDS011;63465;50.862;6.220;2023-05-14T06:29:48;25.80;;;16.87;;
74904;SDS011;63465;50.862;6.220;2023-05-14T06:32:14;27.30;;;18.33;;
74904;SDS011;63465;50.862;6.220;2023-05-14T06:34:39;29.50;;;19.53;;
74904;SDS011;63465;50.862;6.220;2023-05-14T06:37:06;27.33;;;19.00;;
74904;SDS011;63465;50.862;6.220;2023-05-14T06:39:32;29.40;;;19.43;;
74904;SDS011;63465;50.862;6.220;2023-05-14T06:41:57;31.80;;;21.07;;
74904;SDS011;63465;50.862;6.220;2023-05-14T06:44:22;30.17;;;19.40;;
74904;SDS011;63465;50.862;6.220;2023-05-14T06:46:47;31.90;;;20.27;;
74904;SDS011;63465;50.862;6.220;2023-05-14T06:49:13;31.87;;;21.07;;
74904;SDS011;63465;50.862;6.220;2023-05-14T06:51:38;36.10;;;22.40;;
74904;SDS011;63465;50.862;6.220;2023-05-14T06:54:04;32.60;;;22.00;;
74904;SDS011;63465;50.862;6.220;2023-05-14T06:56:30;31.97;;;21.63;;
74904;SDS011;63465;50.862;6.220;2023-05-14T06:58:55;31.67;;;21.00;;
74904;SDS011;63465;50.862;6.220;2023-05-14T07:01:20;33.00;;;20.97;;
74904;SDS011;63465;50.862;6.220;2023-05-14T07:03:46;31.07;;;21.13;;
74904;SDS011;63465;50.862;6.220;2023-05-14T07:06:11;35.13;;;22.10;;
74904;SDS011;63465;50.862;6.220;2023-05-14T07:08:37;31.67;;;21.50;;
74904;SDS011;63465;50.862;6.220;2023-05-14T07:11:03;43.73;;;24.27;;
74904;SDS011;63465;50.862;6.220;2023-05-14T07:13:28;40.80;;;25.90;;
74904;SDS011;63465;50.862;6.220;2023-05-14T07:15:53;40.30;;;25.10;;
74904;SDS011;63465;50.862;6.220;2023-05-14T07:18:22;39.50;;;24.63;;
74904;SDS011;63465;50.862;6.220;2023-05-14T07:20:48;36.83;;;23.63;;
74904;SDS011;63465;50.862;6.220;2023-05-14T07:23:13;38.10;;;25.57;;
74904;SDS011;63465;50.862;6.220;2023-05-14T07:25:38;45.87;;;25.13;;
74904;SDS011;63465;50.862;6.220;2023-05-14T07:28:03;40.37;;;25.60;;
74904;SDS011;63465;50.862;6.220;2023-05-14T07:30:29;39.37;;;24.10;;
74904;SDS011;63465;50.862;6.220;2023-05-14T07:32:54;43.43;;;25.03;;
74904;SDS011;63465;50.862;6.220;2023-05-14T07:35:19;40.00;;;25.23;;
74904;SDS011;63465;50.862;6.220;2023-05-14T07:37:45;45.00;;;24.13;;
74904;SDS011;63465;50.862;6.220;2023-05-14T07:40:10;43.50;;;24.83;;
74904;SDS011;63465;50.862;6.220;2023-05-14T07:42:36;37.97;;;24.53;;
74904;SDS011;63465;50.862;6.220;2023-05-14T07:45:01;34.87;;;22.60;;
74904;SDS011;63465;50.862;6.220;2023-05-14T07:47:28;33.17;;;22.23;;
74904;SDS011;63465;50.862;6.220;2023-05-14T07:49:54;38.50;;;22.47;;
74904;SDS011;63465;50.862;6.220;2023-05-14T07:52:20;32.47;;;20.63;;
74904;SDS011;63465;50.862;6.220;2023-05-14T07:54:45;40.20;;;23.17;;
74904;SDS011;63465;50.862;6.220;2023-05-14T07:57:11;40.23;;;25.60;;
74904;SDS011;63465;50.862;6.220;2023-05-14T07:59:36;43.90;;;22.97;;
74904;SDS011;63465;50.862;6.220;2023-05-14T08:02:01;36.83;;;23.00;;
74904;SDS011;63465;50.862;6.220;2023-05-14T08:04:27;33.10;;;22.90;;
74904;SDS011;63465;50.862;6.220;2023-05-14T08:06:52;36.53;;;22.53;;
74904;SDS011;63465;50.862;6.220;2023-05-14T08:09:18;32.37;;;22.27;;
74904;SDS011;63465;50.862;6.220;2023-05-14T08:11:43;51.73;;;29.43;;
74904;SDS011;63465;50.862;6.220;2023-05-14T08:14:08;42.40;;;24.47;;
74904;SDS011;63465;50.862;6.220;2023-05-14T08:16:34;37.60;;;24.40;;
74904;SDS011;63465;50.862;6.220;2023-05-14T08:18:59;39.73;;;24.90;;
74904;SDS011;63465;50.862;6.220;2023-05-14T08:21:24;37.70;;;24.50;;
74904;SDS011;63465;50.862;6.220;2023-05-14T08:23:50;33.80;;;24.00;;
74904;SDS011;63465;50.862;6.220;2023-05-14T08:26:15;35.40;;;23.57;;
74904;SDS011;63465;50.862;6.220;2023-05-14T08:28:40;31.93;;;23.70;;
74904;SDS011;63465;50.862;6.220;2023-05-14T08:31:06;34.70;;;25.10;;
74904;SDS011;63465;50.862;6.220;2023-05-14T08:33:32;40.40;;;23.43;;
74904;SDS011;63465;50.862;6.220;2023-05-14T08:35:57;39.03;;;23.90;;
74904;SDS011;63465;50.862;6.220;2023-05-14T08:38:24;35.80;;;24.70;;
74904;SDS011;63465;50.862;6.220;2023-05-14T08:40:52;33.73;;;23.70;;
74904;SDS011;63465;50.862;6.220;2023-05-14T08:43:22;30.67;;;22.77;;
74904;SDS011;63465;50.862;6.220;2023-05-14T08:45:56;31.20;;;23.90;;
74904;SDS011;63465;50.862;6.220;2023-05-14T08:48:25;32.43;;;23.10;;
74904;SDS011;63465;50.862;6.220;2023-05-14T08:50:53;34.77;;;26.27;;
74904;SDS011;63465;50.862;6.220;2023-05-14T08:53:19;31.60;;;23.30;;
74904;SDS011;63465;50.862;6.220;2023-05-14T08:55:44;33.67;;;24.27;;
74904;SDS011;63465;50.862;6.220;2023-05-14T08:58:12;36.83;;;24.50;;
74904;SDS011;63465;50.862;6.220;2023-05-14T09:00:37;34.73;;;25.27;;
74904;SDS011;63465;50.862;6.220;2023-05-14T09:03:03;36.30;;;26.50;;
74904;SDS011;63465;50.862;6.220;2023-05-14T09:05:31;35.80;;;26.60;;
74904;SDS011;63465;50.862;6.220;2023-05-14T09:07:57;35.73;;;24.97;;
74904;SDS011;63465;50.862;6.220;2023-05-14T09:10:23;29.90;;;24.40;;
74904;SDS011;63465;50.862;6.220;2023-05-14T09:12:48;30.37;;;24.40;;
74904;SDS011;63465;50.862;6.220;2023-05-14T09:15:13;37.13;;;25.10;;
74904;SDS011;63465;50.862;6.220;2023-05-14T09:17:39;33.20;;;25.40;;
74904;SDS011;63465;50.862;6.220;2023-05-14T09:20:04;36.87;;;26.00;;
74904;SDS011;63465;50.862;6.220;2023-05-14T09:22:30;36.37;;;27.60;;
74904;SDS011;63465;50.862;6.220;2023-05-14T09:25:06;35.97;;;26.30;;
74904;SDS011;63465;50.862;6.220;2023-05-14T09:27:33;35.53;;;26.53;;
74904;SDS011;63465;50.862;6.220;2023-05-14T09:30:10;40.80;;;27.07;;
74904;SDS011;63465;50.862;6.220;2023-05-14T09:32:39;35.70;;;26.83;;
74904;SDS011;63465;50.862;6.220;2023-05-14T09:35:15;36.83;;;26.83;;
74904;SDS011;63465;50.862;6.220;2023-05-14T09:37:42;34.30;;;26.10;;
74904;SDS011;63465;50.862;6.220;2023-05-14T09:40:12;37.20;;;26.67;;
74904;SDS011;63465;50.862;6.220;2023-05-14T09:42:38;34.03;;;25.10;;
74904;SDS011;63465;50.862;6.220;2023-05-14T09:45:03;38.30;;;26.83;;
74904;SDS011;63465;50.862;6.220;2023-05-14T09:47:30;35.87;;;26.63;;
74904;SDS011;63465;50.862;6.220;2023-05-14T09:49:56;40.10;;;28.90;;
74904;SDS011;63465;50.862;6.220;2023-05-14T09:52:22;40.90;;;29.43;;
74904;SDS011;63465;50.862;6.220;2023-05-14T09:54:49;39.80;;;27.43;;
74904;SDS011;63465;50.862;6.220;2023-05-14T09:57:16;40.43;;;28.50;;
74904;SDS011;63465;50.862;6.220;2023-05-14T09:59:41;38.73;;;28.70;;
74904;SDS011;63465;50.862;6.220;2023-05-14T10:02:07;38.93;;;26.93;;
74904;SDS011;63465;50.862;6.220;2023-05-14T10:04:50;42.70;;;27.43;;
74904;SDS011;63465;50.862;6.220;2023-05-14T10:07:18;38.70;;;28.77;;
74904;SDS011;63465;50.862;6.220;2023-05-14T10:09:53;34.87;;;26.93;;
74904;SDS011;63465;50.862;6.220;2023-05-14T10:12:23;34.83;;;26.07;;
74904;SDS011;63465;50.862;6.220;2023-05-14T10:15:03;38.27;;;27.43;;
74904;SDS011;63465;50.862;6.220;2023-05-14T10:17:35;36.00;;;28.17;;
74904;SDS011;63465;50.862;6.220;2023-05-14T10:20:03;33.80;;;27.20;;
74904;SDS011;63465;50.862;6.220;2023-05-14T10:22:34;40.90;;;28.07;;
74904;SDS011;63465;50.862;6.220;2023-05-14T10:24:59;37.33;;;28.40;;
74904;SDS011;63465;50.862;6.220;2023-05-14T10:27:27;31.27;;;25.33;;
74904;SDS011;63465;50.862;6.220;2023-05-14T10:29:53;36.20;;;26.97;;
74904;SDS011;63465;50.862;6.220;2023-05-14T10:32:19;41.27;;;25.67;;
74904;SDS011;63465;50.862;6.220;2023-05-14T10:34:46;36.70;;;25.50;;
74904;SDS011;63465;50.862;6.220;2023-05-14T10:37:14;33.00;;;25.20;;
74904;SDS011;63465;50.862;6.220;2023-05-14T10:39:45;36.00;;;26.77;;
74904;SDS011;63465;50.862;6.220;2023-05-14T10:42:24;37.00;;;26.90;;
74904;SDS011;63465;50.862;6.220;2023-05-14T10:44:56;33.00;;;25.53;;
74904;SDS011;63465;50.862;6.220;2023-05-14T10:47:28;35.13;;;25.60;;
74904;SDS011;63465;50.862;6.220;2023-05-14T10:49:55;32.20;;;23.70;;
74904;SDS011;63465;50.862;6.220;2023-05-14T10:52:23;30.67;;;23.67;;
74904;SDS011;63465;50.862;6.220;2023-05-14T10:54:58;30.10;;;24.20;;
74904;SDS011;63465;50.862;6.220;2023-05-14T10:57:25;34.70;;;26.27;;
74904;SDS011;63465;50.862;6.220;2023-05-14T10:59:53;25.83;;;21.30;;
74904;SDS011;63465;50.862;6.220;2023-05-14T11:07:31;26.37;;;19.90;;
74904;SDS011;63465;50.862;6.220;2023-05-14T11:12:41;32.33;;;23.23;;
74904;SDS011;63465;50.862;6.220;2023-05-14T11:15:10;27.10;;;21.60;;
74904;SDS011;63465;50.862;6.220;2023-05-14T11:17:37;26.50;;;19.63;;
74904;SDS011;63465;50.862;6.220;2023-05-14T11:20:05;25.90;;;19.93;;
74904;SDS011;63465;50.862;6.220;2023-05-14T11:22:32;24.67;;;19.60;;
74904;SDS011;63465;50.862;6.220;2023-05-14T11:24:57;19.70;;;16.60;;
74904;SDS011;63465;50.862;6.220;2023-05-14T11:27:23;17.20;;;15.13;;
74904;SDS011;63465;50.862;6.220;2023-05-14T11:29:48;18.43;;;15.57;;
74904;SDS011;63465;50.862;6.220;2023-05-14T11:32:15;18.30;;;16.27;;
74904;SDS011;63465;50.862;6.220;2023-05-14T11:34:41;19.17;;;16.00;;
74904;SDS011;63465;50.862;6.220;2023-05-14T11:37:09;20.50;;;17.43;;
74904;SDS011;63465;50.862;6.220;2023-05-14T11:39:34;21.23;;;16.30;;
74904;SDS011;63465;50.862;6.220;2023-05-14T11:42:01;19.73;;;15.60;;
74904;SDS011;63465;50.862;6.220;2023-05-14T11:44:28;17.27;;;14.50;;
74904;SDS011;63465;50.862;6.220;2023-05-14T11:46:56;16.03;;;14.33;;
74904;SDS011;63465;50.862;6.220;2023-05-14T11:49:22;20.60;;;16.83;;
74904;SDS011;63465;50.862;6.220;2023-05-14T11:51:49;19.63;;;16.37;;
74904;SDS011;63465;50.862;6.220;2023-05-14T11:54:20;19.93;;;16.10;;
74904;SDS011;63465;50.862;6.220;2023-05-14T11:56:48;19.23;;;15.40;;
74904;SDS011;63465;50.862;6.220;2023-05-14T11:59:15;23.63;;;18.23;;
74904;SDS011;63465;50.862;6.220;2023-05-14T12:01:41;26.33;;;21.20;;
74904;SDS011;63465;50.862;6.220;2023-05-14T12:04:08;27.27;;;20.73;;
74904;SDS011;63465;50.862;6.220;2023-05-14T12:06:33;25.10;;;18.60;;
74904;SDS011;63465;50.862;6.220;2023-05-14T12:08:59;18.37;;;15.20;;
74904;SDS011;63465;50.862;6.220;2023-05-14T12:11:29;13.80;;;11.10;;
74904;SDS011;63465;50.862;6.220;2023-05-14T12:13:55;17.80;;;14.50;;
74904;SDS011;63465;50.862;6.220;2023-05-14T12:16:20;16.30;;;12.30;;
74904;SDS011;63465;50.862;6.220;2023-05-14T12:18:45;14.90;;;11.73;;
74904;SDS011;63465;50.862;6.220;2023-05-14T12:21:10;15.20;;;12.27;;
74904;SDS011;63465;50.862;6.220;2023-05-14T12:23:40;15.47;;;12.40;;
74904;SDS011;63465;50.862;6.220;2023-05-14T12:26:06;23.03;;;15.83;;
74904;SDS011;63465;50.862;6.220;2023-05-14T12:28:33;23.47;;;16.50;;
74904;SDS011;63465;50.862;6.220;2023-05-14T12:30:58;21.17;;;16.27;;
74904;SDS011;63465;50.862;6.220;2023-05-14T12:33:27;28.53;;;18.77;;
74904;SDS011;63465;50.862;6.220;2023-05-14T12:35:52;33.00;;;18.67;;
74904;SDS011;63465;50.862;6.220;2023-05-14T12:38:21;24.93;;;18.87;;
74904;SDS011;63465;50.862;6.220;2023-05-14T12:40:46;23.67;;;18.20;;
74904;SDS011;63465;50.862;6.220;2023-05-14T12:43:12;33.70;;;17.07;;
74904;SDS011;63465;50.862;6.220;2023-05-14T12:45:37;19.47;;;15.13;;
74904;SDS011;63465;50.862;6.220;2023-05-14T12:48:02;20.30;;;15.40;;
74904;SDS011;63465;50.862;6.220;2023-05-14T12:50:27;15.00;;;13.03;;
74904;SDS011;63465;50.862;6.220;2023-05-14T12:52:53;12.27;;;10.27;;
74904;SDS011;63465;50.862;6.220;2023-05-14T12:55:18;12.57;;;11.07;;
74904;SDS011;63465;50.862;6.220;2023-05-14T12:57:43;14.77;;;12.27;;
74904;SDS011;63465;50.862;6.220;2023-05-14T13:00:09;16.07;;;12.00;;
74904;SDS011;63465;50.862;6.220;2023-05-14T13:02:35;15.73;;;12.00;;
74904;SDS011;63465;50.862;6.220;2023-05-14T13:05:00;15.83;;;11.50;;
74904;SDS011;63465;50.862;6.220;2023-05-14T13:07:29;13.13;;;11.73;;
74904;SDS011;63465;50.862;6.220;2023-05-14T13:09:54;16.50;;;11.60;;
74904;SDS011;63465;50.862;6.220;2023-05-14T13:12:20;14.20;;;11.67;;
74904;SDS011;63465;50.862;6.220;2023-05-14T13:14:47;12.30;;;10.20;;
74904;SDS011;63465;50.862;6.220;2023-05-14T13:17:13;13.63;;;11.63;;
74904;SDS011;63465;50.862;6.220;2023-05-14T13:19:38;14.80;;;10.97;;
74904;SDS011;63465;50.862;6.220;2023-05-14T13:22:03;17.13;;;10.90;;
74904;SDS011;63465;50.862;6.220;2023-05-14T13:24:29;13.50;;;11.30;;
74904;SDS011;63465;50.862;6.220;2023-05-14T13:26:54;14.00;;;11.30;;
74904;SDS011;63465;50.862;6.220;2023-05-14T13:29:19;15.27;;;12.53;;
74904;SDS011;63465;50.862;6.220;2023-05-14T13:31:45;14.83;;;12.07;;
74904;SDS011;63465;50.862;6.220;2023-05-14T13:34:10;14.40;;;11.13;;
74904;SDS011;63465;50.862;6.220;2023-05-14T13:36:37;16.00;;;12.00;;
74904;SDS011;63465;50.862;6.220;2023-05-14T13:39:04;18.10;;;12.93;;
74904;SDS011;63465;50.862;6.220;2023-05-14T13:41:30;20.70;;;13.13;;
74904;SDS011;63465;50.862;6.220;2023-05-14T13:43:59;17.67;;;13.77;;
74904;SDS011;63465;50.862;6.220;2023-05-14T13:46:24;19.67;;;14.77;;
74904;SDS011;63465;50.862;6.220;2023-05-14T13:48:50;25.00;;;14.43;;
74904;SDS011;63465;50.862;6.220;2023-05-14T13:51:15;19.43;;;14.30;;
74904;SDS011;63465;50.862;6.220;2023-05-14T13:53:40;15.87;;;13.70;;
74904;SDS011;63465;50.862;6.220;2023-05-14T13:56:06;17.70;;;13.57;;
74904;SDS011;63465;50.862;6.220;2023-05-14T13:58:32;16.97;;;12.93;;
74904;SDS011;63465;50.862;6.220;2023-05-14T14:00:57;15.63;;;12.83;;
74904;SDS011;63465;50.862;6.220;2023-05-14T14:03:23;15.87;;;12.93;;
74904;SDS011;63465;50.862;6.220;2023-05-14T14:05:49;14.83;;;11.77;;
74904;SDS011;63465;50.862;6.220;2023-05-14T14:08:15;16.17;;;11.63;;
74904;SDS011;63465;50.862;6.220;2023-05-14T14:10:40;16.10;;;12.10;;
74904;SDS011;63465;50.862;6.220;2023-05-14T14:13:06;19.33;;;13.20;;
74904;SDS011;63465;50.862;6.220;2023-05-14T14:15:32;17.90;;;14.27;;
74904;SDS011;63465;50.862;6.220;2023-05-14T14:17:57;18.20;;;12.93;;
74904;SDS011;63465;50.862;6.220;2023-05-14T14:20:23;22.40;;;13.53;;
74904;SDS011;63465;50.862;6.220;2023-05-14T14:22:48;15.83;;;11.57;;
74904;SDS011;63465;50.862;6.220;2023-05-14T14:25:13;12.60;;;11.30;;
74904;SDS011;63465;50.862;6.220;2023-05-14T14:27:39;12.00;;;10.30;;
74904;SDS011;63465;50.862;6.220;2023-05-14T14:30:08;12.60;;;10.60;;